sensor_id;sensor_type;location;lat;lon;timestamp;P1;durP1;ratioP1;P2;durP2;ratioP2
37067;SDS011;22982;42.848;25.468;2023-10-19T00:04:37;11.40;;;6.55;;
37067;SDS011;22982;42.848;25.468;2023-10-19T00:09:42;8.68;;;6.10;;
37067;SDS011;22982;42.848;25.468;2023-10-19T00:14:50;9.07;;;6.75;;
37067;SDS011;22982;42.848;25.468;2023-10-19T00:19:54;11.52;;;6.57;;
37067;SDS011;22982;42.848;25.468;2023-10-19T00:25:21;10.18;;;6.95;;
37067;SDS011;22982;42.848;25.468;2023-10-19T00:30:25;10.48;;;7.00;;
37067;SDS011;22982;42.848;25.468;2023-10-19T00:35:33;10.02;;;7.00;;
37067;SDS011;22982;42.848;25.468;2023-10-19T00:45:52;9.70;;;7.22;;
37067;SDS011;22982;42.848;25.468;2023-10-19T00:50:55;8.70;;;6.75;;
37067;SDS011;22982;42.848;25.468;2023-10-19T00:56:09;11.63;;;7.55;;
37067;SDS011;22982;42.848;25.468;2023-10-19T01:01:13;9.88;;;7.18;;
37067;SDS011;22982;42.848;25.468;2023-10-19T01:06:17;11.68;;;7.75;;
37067;SDS011;22982;42.848;25.468;2023-10-19T01:11:21;10.32;;;7.72;;
37067;SDS011;22982;42.848;25.468;2023-10-19T01:16:30;13.77;;;8.18;;
37067;SDS011;22982;42.848;25.468;2023-10-19T01:21:34;12.10;;;8.02;;
37067;SDS011;22982;42.848;25.468;2023-10-19T01:26:39;12.52;;;9.02;;
37067;SDS011;22982;42.848;25.468;2023-10-19T01:31:42;12.68;;;8.77;;
37067;SDS011;22982;42.848;25.468;2023-10-19T01:36:57;10.32;;;7.95;;
37067;SDS011;22982;42.848;25.468;2023-10-19T01:42:04;11.27;;;7.88;;
37067;SDS011;22982;42.848;25.468;2023-10-19T01:47:09;10.63;;;8.32;;
37067;SDS011;22982;42.848;25.468;2023-10-19T01:52:11;15.85;;;9.18;;
37067;SDS011;22982;42.848;25.468;2023-10-19T01:57:15;15.95;;;9.00;;
37067;SDS011;22982;42.848;25.468;2023-10-19T02:02:17;11.38;;;8.65;;
37067;SDS011;22982;42.848;25.468;2023-10-19T02:07:24;13.73;;;9.50;;
37067;SDS011;22982;42.848;25.468;2023-10-19T02:12:28;13.90;;;10.30;;
37067;SDS011;22982;42.848;25.468;2023-10-19T02:17:31;12.30;;;9.07;;
37067;SDS011;22982;42.848;25.468;2023-10-19T02:22:36;13.45;;;9.98;;
37067;SDS011;22982;42.848;25.468;2023-10-19T02:27:38;14.38;;;9.68;;
37067;SDS011;22982;42.848;25.468;2023-10-19T02:32:42;16.33;;;10.70;;
37067;SDS011;22982;42.848;25.468;2023-10-19T02:37:45;16.75;;;10.80;;
37067;SDS011;22982;42.848;25.468;2023-10-19T02:42:48;15.68;;;10.75;;
37067;SDS011;22982;42.848;25.468;2023-10-19T02:47:52;16.73;;;10.70;;
37067;SDS011;22982;42.848;25.468;2023-10-19T02:52:55;15.20;;;10.02;;
37067;SDS011;22982;42.848;25.468;2023-10-19T02:57:58;17.08;;;10.35;;
37067;SDS011;22982;42.848;25.468;2023-10-19T03:03:01;16.88;;;10.73;;
37067;SDS011;22982;42.848;25.468;2023-10-19T03:08:07;16.77;;;11.75;;
37067;SDS011;22982;42.848;25.468;2023-10-19T03:13:09;16.23;;;11.45;;
37067;SDS011;22982;42.848;25.468;2023-10-19T03:18:15;19.45;;;12.95;;
37067;SDS011;22982;42.848;25.468;2023-10-19T03:23:18;18.95;;;12.82;;
37067;SDS011;22982;42.848;25.468;2023-10-19T03:28:23;23.45;;;12.98;;
37067;SDS011;22982;42.848;25.468;2023-10-19T03:33:29;17.17;;;10.98;;
37067;SDS011;22982;42.848;25.468;2023-10-19T03:38:33;19.23;;;12.63;;
37067;SDS011;22982;42.848;25.468;2023-10-19T03:43:36;24.40;;;15.13;;
37067;SDS011;22982;42.848;25.468;2023-10-19T03:48:42;31.13;;;22.73;;
37067;SDS011;22982;42.848;25.468;2023-10-19T03:53:48;20.23;;;13.93;;
37067;SDS011;22982;42.848;25.468;2023-10-19T03:58:57;19.98;;;13.55;;
37067;SDS011;22982;42.848;25.468;2023-10-19T04:04:00;19.40;;;14.00;;
37067;SDS011;22982;42.848;25.468;2023-10-19T04:09:03;27.63;;;18.63;;
37067;SDS011;22982;42.848;25.468;2023-10-19T04:14:09;19.65;;;14.40;;
37067;SDS011;22982;42.848;25.468;2023-10-19T04:19:12;22.55;;;15.10;;
37067;SDS011;22982;42.848;25.468;2023-10-19T04:24:18;32.25;;;18.10;;
37067;SDS011;22982;42.848;25.468;2023-10-19T04:29:21;36.55;;;18.80;;
37067;SDS011;22982;42.848;25.468;2023-10-19T04:34:29;30.65;;;19.77;;
37067;SDS011;22982;42.848;25.468;2023-10-19T04:39:32;25.08;;;17.67;;
37067;SDS011;22982;42.848;25.468;2023-10-19T04:44:36;29.20;;;19.88;;
37067;SDS011;22982;42.848;25.468;2023-10-19T04:49:38;47.90;;;26.80;;
37067;SDS011;22982;42.848;25.468;2023-10-19T04:54:42;74.97;;;44.75;;
37067;SDS011;22982;42.848;25.468;2023-10-19T04:59:47;31.33;;;20.80;;
37067;SDS011;22982;42.848;25.468;2023-10-19T05:04:51;30.08;;;20.77;;
37067;SDS011;22982;42.848;25.468;2023-10-19T05:09:53;38.90;;;24.20;;
37067;SDS011;22982;42.848;25.468;2023-10-19T05:14:56;84.00;;;47.13;;
37067;SDS011;22982;42.848;25.468;2023-10-19T05:19:58;68.55;;;42.15;;
37067;SDS011;22982;42.848;25.468;2023-10-19T05:25:01;64.00;;;41.05;;
37067;SDS011;22982;42.848;25.468;2023-10-19T05:30:04;50.50;;;31.52;;
37067;SDS011;22982;42.848;25.468;2023-10-19T05:35:07;61.08;;;37.70;;
37067;SDS011;22982;42.848;25.468;2023-10-19T05:40:15;73.05;;;45.20;;
37067;SDS011;22982;42.848;25.468;2023-10-19T05:45:20;51.97;;;32.28;;
37067;SDS011;22982;42.848;25.468;2023-10-19T05:50:23;36.35;;;24.60;;
37067;SDS011;22982;42.848;25.468;2023-10-19T05:55:26;32.70;;;23.52;;
37067;SDS011;22982;42.848;25.468;2023-10-19T06:00:31;33.45;;;23.00;;
37067;SDS011;22982;42.848;25.468;2023-10-19T06:05:33;27.38;;;16.75;;
37067;SDS011;22982;42.848;25.468;2023-10-19T06:10:37;28.00;;;19.90;;
37067;SDS011;22982;42.848;25.468;2023-10-19T06:15:41;24.15;;;16.52;;
37067;SDS011;22982;42.848;25.468;2023-10-19T06:20:44;21.13;;;16.40;;
37067;SDS011;22982;42.848;25.468;2023-10-19T06:25:46;21.13;;;15.50;;
37067;SDS011;22982;42.848;25.468;2023-10-19T06:30:50;19.80;;;15.30;;
37067;SDS011;22982;42.848;25.468;2023-10-19T06:35:54;11.95;;;9.70;;
37067;SDS011;22982;42.848;25.468;2023-10-19T06:40:56;10.38;;;8.50;;
37067;SDS011;22982;42.848;25.468;2023-10-19T06:45:59;9.77;;;8.77;;
37067;SDS011;22982;42.848;25.468;2023-10-19T06:51:02;9.23;;;8.32;;
37067;SDS011;22982;42.848;25.468;2023-10-19T06:56:04;7.93;;;7.13;;
37067;SDS011;22982;42.848;25.468;2023-10-19T07:01:09;6.90;;;5.78;;
37067;SDS011;22982;42.848;25.468;2023-10-19T07:06:12;6.20;;;5.60;;
37067;SDS011;22982;42.848;25.468;2023-10-19T07:11:16;6.50;;;5.90;;
37067;SDS011;22982;42.848;25.468;2023-10-19T07:16:18;6.72;;;6.13;;
37067;SDS011;22982;42.848;25.468;2023-10-19T07:21:21;8.13;;;7.32;;
37067;SDS011;22982;42.848;25.468;2023-10-19T07:26:25;7.10;;;6.43;;
37067;SDS011;22982;42.848;25.468;2023-10-19T07:31:33;7.13;;;6.47;;
37067;SDS011;22982;42.848;25.468;2023-10-19T07:36:36;7.47;;;6.40;;
37067;SDS011;22982;42.848;25.468;2023-10-19T07:41:40;5.53;;;4.72;;
37067;SDS011;22982;42.848;25.468;2023-10-19T07:46:42;7.45;;;6.75;;
37067;SDS011;22982;42.848;25.468;2023-10-19T07:51:46;5.90;;;5.40;;
37067;SDS011;22982;42.848;25.468;2023-10-19T07:56:52;5.60;;;4.97;;
37067;SDS011;22982;42.848;25.468;2023-10-19T08:01:54;5.55;;;4.93;;
37067;SDS011;22982;42.848;25.468;2023-10-19T08:06:58;5.85;;;4.40;;
37067;SDS011;22982;42.848;25.468;2023-10-19T08:12:00;6.53;;;5.10;;
37067;SDS011;22982;42.848;25.468;2023-10-19T08:17:07;7.10;;;3.58;;
37067;SDS011;22982;42.848;25.468;2023-10-19T08:22:10;3.53;;;3.22;;
37067;SDS011;22982;42.848;25.468;2023-10-19T08:27:12;3.97;;;3.30;;
37067;SDS011;22982;42.848;25.468;2023-10-19T08:32:16;4.00;;;3.60;;
37067;SDS011;22982;42.848;25.468;2023-10-19T08:37:18;3.17;;;2.78;;
37067;SDS011;22982;42.848;25.468;2023-10-19T08:42:21;2.70;;;2.50;;
37067;SDS011;22982;42.848;25.468;2023-10-19T08:47:24;2.40;;;2.20;;
37067;SDS011;22982;42.848;25.468;2023-10-19T08:52:28;5.55;;;4.18;;
37067;SDS011;22982;42.848;25.468;2023-10-19T08:57:31;4.95;;;3.45;;
37067;SDS011;22982;42.848;25.468;2023-10-19T09:02:33;2.75;;;2.47;;
37067;SDS011;22982;42.848;25.468;2023-10-19T09:07:36;3.45;;;2.95;;
37067;SDS011;22982;42.848;25.468;2023-10-19T09:12:43;2.72;;;2.33;;
37067;SDS011;22982;42.848;25.468;2023-10-19T09:17:47;4.25;;;2.42;;
37067;SDS011;22982;42.848;25.468;2023-10-19T09:22:51;2.28;;;2.10;;
37067;SDS011;22982;42.848;25.468;2023-10-19T09:27:55;2.17;;;2.03;;
37067;SDS011;22982;42.848;25.468;2023-10-19T09:32:57;2.50;;;2.30;;
37067;SDS011;22982;42.848;25.468;2023-10-19T09:38:00;7.60;;;2.42;;
37067;SDS011;22982;42.848;25.468;2023-10-19T09:43:08;3.80;;;2.47;;
37067;SDS011;22982;42.848;25.468;2023-10-19T09:48:18;3.35;;;2.00;;
37067;SDS011;22982;42.848;25.468;2023-10-19T09:53:24;1.95;;;1.83;;
37067;SDS011;22982;42.848;25.468;2023-10-19T09:58:34;1.90;;;1.60;;
37067;SDS011;22982;42.848;25.468;2023-10-19T10:03:50;3.47;;;1.90;;
37067;SDS011;22982;42.848;25.468;2023-10-19T10:08:54;2.10;;;1.60;;
37067;SDS011;22982;42.848;25.468;2023-10-19T10:13:58;1.90;;;1.80;;
37067;SDS011;22982;42.848;25.468;2023-10-19T10:19:03;2.70;;;1.92;;
37067;SDS011;22982;42.848;25.468;2023-10-19T10:24:07;2.58;;;2.38;;
37067;SDS011;22982;42.848;25.468;2023-10-19T10:29:15;2.47;;;2.10;;
37067;SDS011;22982;42.848;25.468;2023-10-19T10:39:44;3.08;;;2.60;;
37067;SDS011;22982;42.848;25.468;2023-10-19T10:44:47;3.17;;;2.47;;
37067;SDS011;22982;42.848;25.468;2023-10-19T10:49:57;2.90;;;2.60;;
37067;SDS011;22982;42.848;25.468;2023-10-19T10:55:11;2.83;;;2.55;;
37067;SDS011;22982;42.848;25.468;2023-10-19T11:00:18;2.78;;;2.58;;
37067;SDS011;22982;42.848;25.468;2023-10-19T11:05:22;5.75;;;3.00;;
37067;SDS011;22982;42.848;25.468;2023-10-19T11:10:29;6.00;;;3.38;;
37067;SDS011;22982;42.848;25.468;2023-10-19T11:15:36;3.22;;;2.92;;
37067;SDS011;22982;42.848;25.468;2023-10-19T11:20:40;3.63;;;3.33;;
37067;SDS011;22982;42.848;25.468;2023-10-19T11:25:43;3.53;;;3.22;;
37067;SDS011;22982;42.848;25.468;2023-10-19T11:30:46;4.22;;;3.20;;
37067;SDS011;22982;42.848;25.468;2023-10-19T11:35:50;4.15;;;3.40;;
37067;SDS011;22982;42.848;25.468;2023-10-19T11:40:54;4.75;;;3.30;;
37067;SDS011;22982;42.848;25.468;2023-10-19T11:45:57;6.10;;;3.67;;
37067;SDS011;22982;42.848;25.468;2023-10-19T11:51:00;4.70;;;3.20;;
37067;SDS011;22982;42.848;25.468;2023-10-19T11:56:08;4.15;;;3.45;;
37067;SDS011;22982;42.848;25.468;2023-10-19T12:01:18;3.80;;;3.40;;
37067;SDS011;22982;42.848;25.468;2023-10-19T12:06:21;5.75;;;3.65;;
37067;SDS011;22982;42.848;25.468;2023-10-19T12:11:26;4.97;;;3.63;;
37067;SDS011;22982;42.848;25.468;2023-10-19T12:16:28;4.35;;;3.80;;
37067;SDS011;22982;42.848;25.468;2023-10-19T12:21:32;3.67;;;3.38;;
37067;SDS011;22982;42.848;25.468;2023-10-19T12:26:35;6.75;;;3.72;;
37067;SDS011;22982;42.848;25.468;2023-10-19T12:31:39;7.32;;;3.88;;
37067;SDS011;22982;42.848;25.468;2023-10-19T12:36:42;6.50;;;3.78;;
37067;SDS011;22982;42.848;25.468;2023-10-19T12:41:49;8.52;;;4.47;;
37067;SDS011;22982;42.848;25.468;2023-10-19T12:46:52;5.72;;;3.53;;
37067;SDS011;22982;42.848;25.468;2023-10-19T12:51:55;4.70;;;4.05;;
37067;SDS011;22982;42.848;25.468;2023-10-19T12:56:57;8.05;;;3.92;;
37067;SDS011;22982;42.848;25.468;2023-10-19T13:02:01;6.78;;;4.10;;
37067;SDS011;22982;42.848;25.468;2023-10-19T13:07:05;4.95;;;4.25;;
37067;SDS011;22982;42.848;25.468;2023-10-19T13:12:07;7.65;;;4.15;;
37067;SDS011;22982;42.848;25.468;2023-10-19T13:17:11;5.90;;;4.00;;
37067;SDS011;22982;42.848;25.468;2023-10-19T13:22:14;4.85;;;3.92;;
37067;SDS011;22982;42.848;25.468;2023-10-19T13:27:19;8.82;;;4.20;;
37067;SDS011;22982;42.848;25.468;2023-10-19T13:32:23;5.07;;;4.03;;
37067;SDS011;22982;42.848;25.468;2023-10-19T13:37:31;7.97;;;4.57;;
37067;SDS011;22982;42.848;25.468;2023-10-19T13:42:34;4.20;;;3.80;;
37067;SDS011;22982;42.848;25.468;2023-10-19T13:47:37;5.57;;;4.15;;
37067;SDS011;22982;42.848;25.468;2023-10-19T13:52:40;10.77;;;4.25;;
37067;SDS011;22982;42.848;25.468;2023-10-19T13:57:43;5.75;;;4.68;;
37067;SDS011;22982;42.848;25.468;2023-10-19T14:02:45;4.65;;;4.20;;
37067;SDS011;22982;42.848;25.468;2023-10-19T14:07:49;4.70;;;4.10;;
37067;SDS011;22982;42.848;25.468;2023-10-19T14:12:52;7.80;;;4.25;;
37067;SDS011;22982;42.848;25.468;2023-10-19T14:17:56;10.05;;;4.95;;
37067;SDS011;22982;42.848;25.468;2023-10-19T14:23:02;5.20;;;4.63;;
37067;SDS011;22982;42.848;25.468;2023-10-19T14:28:07;6.95;;;6.25;;
37067;SDS011;22982;42.848;25.468;2023-10-19T14:33:09;6.22;;;5.53;;
37067;SDS011;22982;42.848;25.468;2023-10-19T14:38:13;10.18;;;8.07;;
37067;SDS011;22982;42.848;25.468;2023-10-19T14:43:16;10.70;;;5.55;;
37067;SDS011;22982;42.848;25.468;2023-10-19T14:48:21;9.77;;;6.45;;
37067;SDS011;22982;42.848;25.468;2023-10-19T14:53:24;16.83;;;8.10;;
37067;SDS011;22982;42.848;25.468;2023-10-19T14:58:28;33.88;;;28.38;;
37067;SDS011;22982;42.848;25.468;2023-10-19T15:03:31;9.88;;;6.93;;
37067;SDS011;22982;42.848;25.468;2023-10-19T15:08:37;13.55;;;7.97;;
37067;SDS011;22982;42.848;25.468;2023-10-19T15:13:40;20.33;;;7.90;;
37067;SDS011;22982;42.848;25.468;2023-10-19T15:18:42;15.63;;;7.43;;
37067;SDS011;22982;42.848;25.468;2023-10-19T15:23:46;57.75;;;41.05;;
37067;SDS011;22982;42.848;25.468;2023-10-19T15:28:48;20.40;;;11.68;;
37067;SDS011;22982;42.848;25.468;2023-10-19T15:33:51;18.52;;;12.38;;
37067;SDS011;22982;42.848;25.468;2023-10-19T15:38:55;44.72;;;30.27;;
37067;SDS011;22982;42.848;25.468;2023-10-19T15:43:57;23.70;;;13.95;;
37067;SDS011;22982;42.848;25.468;2023-10-19T15:49:01;35.53;;;18.02;;
37067;SDS011;22982;42.848;25.468;2023-10-19T15:54:03;54.35;;;29.90;;
37067;SDS011;22982;42.848;25.468;2023-10-19T15:59:07;30.63;;;19.30;;
37067;SDS011;22982;42.848;25.468;2023-10-19T16:04:10;19.52;;;12.65;;
37067;SDS011;22982;42.848;25.468;2023-10-19T16:09:13;15.98;;;11.55;;
37067;SDS011;22982;42.848;25.468;2023-10-19T16:14:15;19.77;;;14.65;;
37067;SDS011;22982;42.848;25.468;2023-10-19T16:19:21;22.70;;;15.80;;
37067;SDS011;22982;42.848;25.468;2023-10-19T16:24:26;20.77;;;15.02;;
37067;SDS011;22982;42.848;25.468;2023-10-19T16:29:31;21.48;;;15.77;;
37067;SDS011;22982;42.848;25.468;2023-10-19T16:34:34;23.20;;;16.10;;
37067;SDS011;22982;42.848;25.468;2023-10-19T16:39:38;25.55;;;18.48;;
37067;SDS011;22982;42.848;25.468;2023-10-19T16:44:41;21.65;;;17.33;;
37067;SDS011;22982;42.848;25.468;2023-10-19T16:49:44;29.40;;;22.00;;
37067;SDS011;22982;42.848;25.468;2023-10-19T16:54:47;21.90;;;16.35;;
37067;SDS011;22982;42.848;25.468;2023-10-19T16:59:54;28.75;;;17.17;;
37067;SDS011;22982;42.848;25.468;2023-10-19T17:04:58;32.83;;;24.95;;
37067;SDS011;22982;42.848;25.468;2023-10-19T17:10:04;31.73;;;19.60;;
37067;SDS011;22982;42.848;25.468;2023-10-19T17:15:09;34.75;;;29.33;;
37067;SDS011;22982;42.848;25.468;2023-10-19T17:20:14;20.70;;;15.80;;
37067;SDS011;22982;42.848;25.468;2023-10-19T17:25:18;21.20;;;14.95;;
37067;SDS011;22982;42.848;25.468;2023-10-19T17:30:21;24.65;;;16.35;;
37067;SDS011;22982;42.848;25.468;2023-10-19T17:35:25;23.33;;;18.05;;
37067;SDS011;22982;42.848;25.468;2023-10-19T17:40:27;33.35;;;24.45;;
37067;SDS011;22982;42.848;25.468;2023-10-19T17:45:31;29.02;;;20.73;;
37067;SDS011;22982;42.848;25.468;2023-10-19T17:50:33;35.30;;;25.10;;
37067;SDS011;22982;42.848;25.468;2023-10-19T17:55:36;34.33;;;22.63;;
37067;SDS011;22982;42.848;25.468;2023-10-19T18:00:39;26.92;;;20.38;;
37067;SDS011;22982;42.848;25.468;2023-10-19T18:05:45;28.25;;;20.65;;
37067;SDS011;22982;42.848;25.468;2023-10-19T18:10:50;70.28;;;45.42;;
37067;SDS011;22982;42.848;25.468;2023-10-19T18:15:54;65.70;;;42.00;;
37067;SDS011;22982;42.848;25.468;2023-10-19T18:20:56;43.00;;;27.52;;
37067;SDS011;22982;42.848;25.468;2023-10-19T18:25:59;60.20;;;39.45;;
37067;SDS011;22982;42.848;25.468;2023-10-19T18:31:03;65.07;;;40.92;;
37067;SDS011;22982;42.848;25.468;2023-10-19T18:36:07;50.83;;;34.63;;
37067;SDS011;22982;42.848;25.468;2023-10-19T18:41:12;48.72;;;33.28;;
37067;SDS011;22982;42.848;25.468;2023-10-19T18:46:15;46.42;;;32.22;;
37067;SDS011;22982;42.848;25.468;2023-10-19T18:51:18;49.17;;;32.50;;
37067;SDS011;22982;42.848;25.468;2023-10-19T18:56:21;48.10;;;33.67;;
37067;SDS011;22982;42.848;25.468;2023-10-19T19:07:01;51.33;;;34.20;;
37067;SDS011;22982;42.848;25.468;2023-10-19T19:12:05;53.33;;;36.25;;
37067;SDS011;22982;42.848;25.468;2023-10-19T19:17:10;50.42;;;34.38;;
37067;SDS011;22982;42.848;25.468;2023-10-19T19:22:14;33.67;;;24.67;;
37067;SDS011;22982;42.848;25.468;2023-10-19T19:27:19;32.75;;;23.27;;
37067;SDS011;22982;42.848;25.468;2023-10-19T19:32:22;25.60;;;18.88;;
37067;SDS011;22982;42.848;25.468;2023-10-19T19:37:25;32.42;;;21.98;;
37067;SDS011;22982;42.848;25.468;2023-10-19T19:42:28;30.13;;;20.65;;
37067;SDS011;22982;42.848;25.468;2023-10-19T19:47:35;22.80;;;17.67;;
37067;SDS011;22982;42.848;25.468;2023-10-19T19:52:37;31.27;;;22.25;;
37067;SDS011;22982;42.848;25.468;2023-10-19T19:57:41;18.90;;;15.40;;
37067;SDS011;22982;42.848;25.468;2023-10-19T20:02:45;20.55;;;14.65;;
37067;SDS011;22982;42.848;25.468;2023-10-19T20:07:49;19.20;;;15.25;;
37067;SDS011;22982;42.848;25.468;2023-10-19T20:12:52;21.40;;;15.23;;
37067;SDS011;22982;42.848;25.468;2023-10-19T20:17:55;19.15;;;14.82;;
37067;SDS011;22982;42.848;25.468;2023-10-19T20:22:59;20.95;;;15.43;;
37067;SDS011;22982;42.848;25.468;2023-10-19T20:28:02;21.23;;;14.55;;
37067;SDS011;22982;42.848;25.468;2023-10-19T20:33:08;18.67;;;14.10;;
37067;SDS011;22982;42.848;25.468;2023-10-19T20:38:14;34.53;;;23.02;;
37067;SDS011;22982;42.848;25.468;2023-10-19T20:43:21;19.83;;;15.15;;
37067;SDS011;22982;42.848;25.468;2023-10-19T20:48:24;21.75;;;15.98;;
37067;SDS011;22982;42.848;25.468;2023-10-19T20:53:27;29.08;;;18.67;;
37067;SDS011;22982;42.848;25.468;2023-10-19T20:58:31;22.67;;;15.23;;
37067;SDS011;22982;42.848;25.468;2023-10-19T21:03:35;23.23;;;16.35;;
37067;SDS011;22982;42.848;25.468;2023-10-19T21:08:38;26.30;;;16.75;;
37067;SDS011;22982;42.848;25.468;2023-10-19T21:13:41;22.65;;;16.67;;
37067;SDS011;22982;42.848;25.468;2023-10-19T21:18:44;23.83;;;17.88;;
37067;SDS011;22982;42.848;25.468;2023-10-19T21:23:47;20.38;;;15.52;;
37067;SDS011;22982;42.848;25.468;2023-10-19T21:28:50;21.10;;;14.85;;
37067;SDS011;22982;42.848;25.468;2023-10-19T21:33:53;19.40;;;14.52;;
37067;SDS011;22982;42.848;25.468;2023-10-19T21:38:56;26.17;;;16.80;;
37067;SDS011;22982;42.848;25.468;2023-10-19T21:44:00;23.77;;;16.38;;
37067;SDS011;22982;42.848;25.468;2023-10-19T21:49:02;23.13;;;17.13;;
37067;SDS011;22982;42.848;25.468;2023-10-19T21:54:06;26.23;;;17.27;;
37067;SDS011;22982;42.848;25.468;2023-10-19T21:59:10;20.67;;;14.20;;
37067;SDS011;22982;42.848;25.468;2023-10-19T22:04:15;28.20;;;14.73;;
37067;SDS011;22982;42.848;25.468;2023-10-19T22:09:21;19.45;;;15.05;;
37067;SDS011;22982;42.848;25.468;2023-10-19T22:14:24;19.90;;;13.95;;
37067;SDS011;22982;42.848;25.468;2023-10-19T22:19:27;19.08;;;14.20;;
37067;SDS011;22982;42.848;25.468;2023-10-19T22:24:31;18.75;;;13.15;;
37067;SDS011;22982;42.848;25.468;2023-10-19T22:29:35;14.90;;;11.57;;
37067;SDS011;22982;42.848;25.468;2023-10-19T22:34:38;14.98;;;11.07;;
37067;SDS011;22982;42.848;25.468;2023-10-19T22:39:41;13.63;;;9.82;;
37067;SDS011;22982;42.848;25.468;2023-10-19T22:44:44;13.05;;;10.05;;
37067;SDS011;22982;42.848;25.468;2023-10-19T22:49:47;13.35;;;10.05;;
37067;SDS011;22982;42.848;25.468;2023-10-19T22:54:50;14.32;;;9.77;;
37067;SDS011;22982;42.848;25.468;2023-10-19T22:59:53;12.07;;;8.98;;
37067;SDS011;22982;42.848;25.468;2023-10-19T23:04:56;13.10;;;8.70;;
37067;SDS011;22982;42.848;25.468;2023-10-19T23:10:00;13.30;;;9.20;;
37067;SDS011;22982;42.848;25.468;2023-10-19T23:15:03;12.02;;;9.63;;
37067;SDS011;22982;42.848;25.468;2023-10-19T23:20:13;11.90;;;8.93;;
37067;SDS011;22982;42.848;25.468;2023-10-19T23:25:33;11.38;;;8.43;;
37067;SDS011;22982;42.848;25.468;2023-10-19T23:30:38;11.20;;;7.40;;
37067;SDS011;22982;42.848;25.468;2023-10-19T23:35:42;12.07;;;7.43;;
37067;SDS011;22982;42.848;25.468;2023-10-19T23:40:46;10.93;;;7.47;;
37067;SDS011;22982;42.848;25.468;2023-10-19T23:45:49;10.52;;;7.95;;
37067;SDS011;22982;42.848;25.468;2023-10-19T23:50:53;12.95;;;7.70;;
37067;SDS011;22982;42.848;25.468;2023-10-19T23:55:55;9.30;;;6.75;;
